• Join FlightAware (Why Join?)
  • Login
  • US Flag 
10:54AM EDT


 

Airport Tracker/Info


-or-


 

Live Flight TrackerFlight Track Log ✈ N6189Q ✈ 15-Jul-2013 ✈ KPVC - KCDW

Flight Track Log - Related Links

Times and Time Zones

All times are in EDT time to prevent confusion due to time zone crossing. See the N6189Q flight status page for this flight to view local times or setup timezone preferences in your user account.

Time Position Orientation Groundspeed Altitude Reporting Facility
EDT Latitude Longitude Course Direction KTS MPH feet Rate Location/Type
08:56AM 42.0047 -70.4235 248° West  Level FlightAware Approximate
08:57AM 41.9943 -70.4581 248° West  Level FlightAware Approximate
08:58AM 41.9839 -70.4927 248° West  Level FlightAware Approximate
08:59AM 41.9735 -70.5273 248° West  Level FlightAware Approximate
09:00AM 41.9628 -70.5617 246° West  Level FlightAware Approximate
09:01AM 41.9514 -70.5958 246° West  Level FlightAware Approximate
09:02AM 41.9414 -70.6305 249° West  Level FlightAware Approximate
09:03AM 41.9315 -70.6654 249° West  Level FlightAware Approximate
09:04AM 41.9216 -70.7003 249° West  Level FlightAware Approximate
09:05AM 41.9117 -70.7351 249° West  Level FlightAware Approximate
09:06AM 41.9018 -70.7699 249° West  Level FlightAware Approximate
09:06AM 41.8578 -70.7119 249° West 111 128 8,000  Level Boston Center
09:07AM 41.8919 -70.8047 249° West  Level FlightAware Approximate
09:07AM 41.8503 -70.7594 258° West 111 128 8,000  Level Boston Center
09:08AM 41.8820 -70.8396 249° West  Level FlightAware Approximate
09:08AM 41.8425 -70.7986 255° West 112 129 8,000  Level Boston Center
09:09AM 41.8721 -70.8744 249° West  Level FlightAware Approximate
09:09AM 41.8325 -70.8381 251° West 111 128 8,000  Level Boston Center
09:10AM 41.8621 -70.9091 249° West  Level FlightAware Approximate
09:10AM 41.8269 -70.8800 260° West 111 128 7,900  Level Boston Center
09:11AM 41.8522 -70.9439 249° West  Level FlightAware Approximate
09:11AM 41.8192 -70.9219 256° West 111 128 8,000  Level Boston Center
09:12AM 41.8114 -70.9611 255° West 111 128 8,000  Level Boston Center
09:13AM 41.8036 -71.0031 256° West 108 124 8,000 -60 Level Boston Center
09:14AM 41.7997 -71.0367 261° West 109 125 7,900  Descending Boston Center
09:15AM 41.7900 -71.0758 252° West 110 127 8,000  Climbing Boston Center
09:16AM 41.7819 -71.1122 253° West 110 127 8,000 -60 Level Boston Center
09:17AM 41.7742 -71.1539 256° West 107 123 7,900 -60 Descending Boston Center
09:18AM 41.7683 -71.1931 259° West 107 123 7,900  Level Boston Center
09:19AM 41.7625 -71.2294 258° West 105 121 7,900  Level Boston Center
09:20AM 41.7544 -71.2714 256° West 106 122 8,000  Climbing Boston Center
09:21AM 41.7467 -71.3103 255° West 106 122 8,000  Level Boston Center
09:22AM 41.7386 -71.3494 255° West 105 121 8,000  Level Boston Center
09:23AM 41.7308 -71.3914 256° West 104 120 8,000 -60 Level Boston Center
09:24AM 41.7228 -71.4278 253° West 105 121 7,900  Descending Boston Center
09:25AM 41.7189 -71.4639 262° West 104 120 8,000  Climbing Boston Center
09:26AM 41.7172 -71.5056 267° West 103 119 8,000  Level Boston Center
09:27AM 41.7153 -71.5389 266° West 103 119 8,000  Level Boston Center
09:28AM 41.7136 -71.5808 267° West 116 133 8,000  Level Boston Center
09:29AM 41.7097 -71.6253 263° West 105 121 8,000  Level Boston Center
09:30AM 41.7058 -71.6644 262° West 105 121 8,000 -60 Level Boston Center
09:31AM 41.7039 -71.7061 266° West 106 122 7,900 -60 Descending Boston Center
09:32AM 41.7000 -71.7450 262° West 105 121 7,900  Level Boston Center
09:33AM 41.6983 -71.7839 267° West 103 119 8,000  Climbing Boston Center
09:34AM 41.6964 -71.8200 266° West 105 121 8,000  Level Boston Center
09:35AM 41.6944 -71.8564 266° West 103 119 8,100  Climbing Boston Center
09:36AM 41.6925 -71.8981 266° West 102 117 8,100 -60 Level Boston Center
09:37AM 41.6886 -71.9369 262° West 102 117 8,000 -360 Descending Boston Center
09:38AM 41.6742 -71.9703 240° Southwest 131 151 7,400 -600 Descending Boston Center
09:39AM 41.6786 -72.0119 278° West 116 133 6,800 -600 Descending Boston Center
09:40AM 41.6786 -72.0536 270° West 110 127 6,200 -360 Descending Boston Center
09:41AM 41.6767 -72.0928 266° West 108 124 6,100 -120 Descending Boston Center
09:42AM 41.6725 -72.1289 261° West 100 115 6,000 -60 Descending Boston Center
09:43AM 41.6706 -72.1650 266° West 99 114 6,000  Level Boston Center
09:44AM 41.6667 -72.2011 262° West 99 114 6,000  Level Boston Center
09:45AM 41.6667 -72.2400 270° West 99 114 6,000  Level Boston Center
09:46AM 41.6606 -72.2761 257° West 97 112 6,000  Level Boston Center
09:47AM 41.6583 -72.3122 265° West 99 114 6,000  Level Boston Center
09:48AM 41.6542 -72.3483 261° West 98 113 6,000  Level Boston Center
09:49AM 41.6542 -72.3872 270° West 98 113 6,000  Level Boston Center
09:50AM 41.6500 -72.4261 262° West 99 114 6,000  Level Boston Center
09:51AM 41.6481 -72.4622 266° West 102 117 6,000  Level Boston Center
09:52AM 41.6439 -72.5011 262° West 99 114 6,000  Level Boston Center
09:53AM 41.6333 -72.5344 247° West 102 117 6,000  Level Boston Center
09:54AM 41.6208 -72.5678 243° Southwest 101 116 6,000  Level Boston Center
09:55AM 41.6103 -72.6039 249° West 102 117 6,000  Level Boston Center
09:56AM 41.5958 -72.6400 242° Southwest 104 120 6,000  Level Boston Center
09:57AM 41.5853 -72.6761 249° West 104 120 6,000  Level Boston Center
09:58AM 41.5747 -72.7119 249° West 107 123 6,000  Level Boston Center
09:59AM 41.5622 -72.7508 247° West 107 123 6,000  Level Boston Center
10:02AM 41.5333 -72.8333 245° Southwest 117 135 6,000  Level New York TRACON
10:03AM 41.5167 -72.8667 236° Southwest 115 132 6,000  Level New York TRACON
10:04AM 41.5000 -72.9167 246° West 114 131 6,000  Level New York TRACON
10:05AM 41.5000 -72.9500 270° West 112 129 6,000  Level New York TRACON
10:06AM 41.4833 -72.9833 236° Southwest 114 131 6,000  Level New York TRACON
10:07AM 41.4667 -73.0333 246° West 114 131 6,000  Level New York TRACON
10:08AM 41.4500 -73.0667 236° Southwest 112 129 6,000  Level New York TRACON
10:09AM 41.4333 -73.1000 236° Southwest 116 133 6,000  Level New York TRACON
10:10AM 41.4333 -73.1333 270° West 112 129 6,000  Level New York TRACON
10:11AM 41.4167 -73.1833 246° West 113 130 6,000  Level New York TRACON
10:12AM 41.4000 -73.2167 236° Southwest 111 128 6,000  Level New York TRACON
10:13AM 41.3833 -73.2500 236° Southwest 113 130 6,000  Level New York TRACON
10:14AM 41.3833 -73.3000 270° West 115 132 6,000  Level New York TRACON
10:15AM 41.3667 -73.3333 236° Southwest 116 133 6,000  Level New York TRACON
10:16AM 41.3500 -73.3667 236° Southwest 113 130 6,000  Level New York TRACON
10:17AM 41.3333 -73.4167 246° West 110 127 6,000  Level New York TRACON
10:18AM 41.3333 -73.4500 270° West 114 131 6,000  Level New York TRACON
10:19AM 41.3167 -73.4833 236° Southwest 115 132 6,000  Level New York TRACON
10:20AM 41.3000 -73.5167 236° Southwest 111 128 6,000 -300 Level New York TRACON
10:21AM 41.2833 -73.5667 246° West 126 145 5,400 -660 Descending New York TRACON
10:22AM 41.2833 -73.6167 270° West 127 146 4,700 -600 Descending New York TRACON
10:23AM 41.2667 -73.6500 236° Southwest 125 144 4,200 -360 Descending New York TRACON
10:24AM 41.2667 -73.7000 270° West 114 131 4,000 -120 Descending New York TRACON
10:25AM 41.2667 -73.7333 270° West 113 130 4,000  Level New York TRACON
10:26AM 41.2667 -73.7833 270° West 114 131 4,000  Level New York TRACON
10:27AM 41.2500 -73.8167 236° Southwest 118 136 4,000  Level New York TRACON
10:28AM 41.2500 -73.8667 270° West 115 132 4,000  Level New York TRACON
10:29AM 41.2500 -73.9000 270° West 115 132 4,000  Level New York TRACON
10:30AM 41.2500 -73.9500 270° West 117 135 4,000  Level New York TRACON
10:31AM 41.2500 -73.9833 270° West 117 135 4,000  Level New York TRACON
10:32AM 41.2333 -74.0333 246° West 124 143 4,000  Level New York TRACON
10:33AM 41.2000 -74.0667 217° Southwest 126 145 4,000  Level New York TRACON
10:34AM 41.1833 -74.1000 236° Southwest 128 147 4,000 -120 Level New York TRACON
10:35AM 41.1500 -74.1333 217° Southwest 131 151 3,800 -420 Descending New York TRACON
10:36AM 41.1167 -74.1500 201° Southwest 140 161 3,200 -420 Descending New York TRACON
10:37AM 41.0833 -74.1667 201° Southwest 134 154 3,000 -120 Descending New York TRACON
10:38AM 41.0500 -74.1833 201° Southwest 129 148 3,000 -300 Level New York TRACON
10:39AM 41.0167 -74.2000 201° Southwest 137 158 2,400 -540 Descending New York TRACON
10:40AM 40.9833 -74.2167 201° Southwest 122 140 2,000 -240 Descending New York TRACON
10:41AM 40.9500 -74.2333 201° Southwest 115 132 2,000 -180 Level New York TRACON
10:42AM 40.9167 -74.2500 201° Southwest 118 136 1,700 -360 Descending New York TRACON
10:43AM 40.9000 -74.2667 217° Southwest 107 123 1,300 -240 Descending New York TRACON
10:44AM 40.8833 -74.2833 217° Southwest 95 109 1,300  Level New York TRACON
10:47AM 40.8752 -74.2814 66° East  Level Estimated
10:54AM 40.8752 -74.2814 66° East  Level Estimated
10:55AM 40.8752 -74.2814 66° East  Level Estimated
10:56AM 40.8752 -74.2814 66° East  Level Estimated